»·PEaware :: N9229P KIFP-KTRM

N9229P :: KIFP-KTRM

FLIGHT INFORMATION

Flight Status: Arrived
Operator: Privately registered:
United States
More flights under this callsign
Pilot: James W. (24810)
Aircraft: PIPER PA-24 COMMANCHE
(PA24)
More flights by this aircraft type
Origin: KIFP Laughlin/Bullhead Intl
United States
Destination: KTRM Desert Resorts Regl
United States
More flights between these airports :: More routes between these airports
Route: EED CLOUD1
File this flight plan on PilotEdge
Remarks:
Altitude:
(Current/Filed)
8,000ft
Speed:
(Current/Filed)
175kts
Departed: 24-Dec-20 01:51 PM
Arrived: 24-Dec-20 03:00 PM
Distance/Time
Traveled:
121nm/1:09
Distance/Time
To Go:
Arrived

Flight Plot

Page will automatically refresh every two minutes.

Flight plan parsing failed; only flown route is shown


Map Options




Map Legend


Flown Route
Filed Route
Departure Airport
Arrival Airport
Navaid (VOR, NDB)
Fix

Horizontal Profiles

Position Reports

Time Latitude Longitude Heading Altitude Ground
Speed
24-Dec-20 13:17 35.158611 -114.556004 266 703ft 0kts
24-Dec-20 13:18 35.158611 -114.556004 266 703ft 0kts
24-Dec-20 13:19 35.158611 -114.556004 266 703ft 0kts
24-Dec-20 13:20 35.158611 -114.556004 266 703ft 0kts
24-Dec-20 13:21 35.158611 -114.556004 266 703ft 0kts
24-Dec-20 13:22 35.158611 -114.556004 266 703ft 0kts
24-Dec-20 13:23 35.158611 -114.556004 266 703ft 0kts
24-Dec-20 13:24 35.158611 -114.556004 266 703ft 0kts
24-Dec-20 13:25 35.158611 -114.556004 266 703ft 0kts
24-Dec-20 13:26 35.158611 -114.556004 266 703ft 0kts
24-Dec-20 13:27 35.158611 -114.556004 266 703ft 0kts
24-Dec-20 13:28 35.158611 -114.556004 266 703ft 0kts
24-Dec-20 13:29 35.158611 -114.556004 266 703ft 0kts
24-Dec-20 13:30 35.158611 -114.556004 266 703ft 0kts
24-Dec-20 13:31 35.158611 -114.556004 266 703ft 0kts
24-Dec-20 13:32 35.158611 -114.556004 266 703ft 0kts
24-Dec-20 13:33 35.158611 -114.556004 266 703ft 0kts
24-Dec-20 13:34 35.158611 -114.556004 266 703ft 0kts
24-Dec-20 13:35 35.158611 -114.556004 266 703ft 0kts
24-Dec-20 13:36 35.158611 -114.556004 266 703ft 0kts
24-Dec-20 13:37 35.158611 -114.556004 266 703ft 0kts
24-Dec-20 13:38 35.158611 -114.556004 266 703ft 0kts
24-Dec-20 13:39 35.158611 -114.556004 266 703ft 0kts
24-Dec-20 13:40 35.158611 -114.556004 266 703ft 0kts
24-Dec-20 13:41 35.158611 -114.556004 266 703ft 0kts
24-Dec-20 13:42 35.158611 -114.556004 266 703ft 0kts
24-Dec-20 13:43 35.158609 -114.556034 266 703ft 1kts
24-Dec-20 13:44 35.156858 -114.556497 174 703ft 9kts
24-Dec-20 13:45 35.154938 -114.557965 178 703ft 15kts
24-Dec-20 13:46 35.149828 -114.557545 172 703ft 17kts
24-Dec-20 13:47 35.145195 -114.557269 176 703ft 20kts
24-Dec-20 13:48 35.143165 -114.557524 258 710ft 0kts
24-Dec-20 13:49 35.143144 -114.557735 268 709ft 12kts
24-Dec-20 13:50 35.160180 -114.559173 1 1272ft 108kts
24-Dec-20 13:51 35.191478 -114.554629 36 2704ft 120kts
24-Dec-20 13:52 35.172650 -114.526784 169 4036ft 161kts
24-Dec-20 13:53 35.127871 -114.521582 169 5181ft 164kts
24-Dec-20 13:54 35.080016 -114.515249 169 5792ft 177kts
24-Dec-20 13:55 35.030876 -114.508785 168 6389ft 178kts
24-Dec-20 13:56 34.982136 -114.502358 169 6989ft 174kts
24-Dec-20 13:57 34.943148 -114.479520 120 7586ft 160kts
24-Dec-20 13:58 34.919138 -114.433629 119 8016ft 166kts
24-Dec-20 13:59 34.877297 -114.425078 199 8021ft 176kts
24-Dec-20 14:00 34.830833 -114.445322 201 8024ft 178kts
24-Dec-20 14:01 34.784186 -114.465889 200 8026ft 178kts
24-Dec-20 14:02 34.746994 -114.502868 231 8028ft 177kts
24-Dec-20 14:03 34.716073 -114.549531 231 8028ft 177kts
24-Dec-20 14:04 34.684889 -114.596712 231 7997ft 179kts
24-Dec-20 14:05 34.653722 -114.643737 232 7996ft 178kts
24-Dec-20 14:06 34.622597 -114.690791 232 7998ft 179kts
24-Dec-20 14:07 34.591386 -114.737833 231 8000ft 179kts
24-Dec-20 14:08 34.560118 -114.784896 231 8000ft 179kts
24-Dec-20 14:09 34.528851 -114.831900 231 8000ft 179kts
24-Dec-20 14:10 34.497546 -114.878897 231 8000ft 179kts
24-Dec-20 14:11 34.466131 -114.925997 231 8000ft 179kts
24-Dec-20 14:12 34.434867 -114.972808 231 8000ft 179kts
24-Dec-20 14:13 34.403590 -115.019640 232 8038ft 176kts
24-Dec-20 14:14 34.372646 -115.065794 232 8054ft 177kts
24-Dec-20 14:15 34.341685 -115.111960 232 8054ft 176kts
24-Dec-20 14:16 34.310884 -115.157837 232 8054ft 175kts
24-Dec-20 14:17 34.280266 -115.203382 232 8054ft 174kts
24-Dec-20 14:18 34.249726 -115.248753 232 8062ft 173kts
24-Dec-20 14:19 34.219255 -115.293965 232 8070ft 173kts
24-Dec-20 14:20 34.188833 -115.339047 231 8079ft 173kts
24-Dec-20 14:21 34.158247 -115.384313 231 8087ft 173kts
24-Dec-20 14:22 34.127664 -115.429519 231 8096ft 174kts
24-Dec-20 14:24 34.097080 -115.474669 230 8099ft 174kts
24-Dec-20 14:25 34.066428 -115.519862 230 8099ft 174kts
24-Dec-20 14:26 34.035671 -115.565151 230 8098ft 174kts
24-Dec-20 14:27 34.004895 -115.610411 230 8098ft 174kts
24-Dec-20 14:28 33.974179 -115.655526 230 8099ft 174kts
24-Dec-20 14:29 33.943408 -115.700659 230 8100ft 174kts
24-Dec-20 14:30 33.915142 -115.747735 256 8096ft 175kts
24-Dec-20 14:31 33.911262 -115.806444 263 8100ft 176kts
24-Dec-20 14:32 33.907419 -115.865023 263 8099ft 176kts
24-Dec-20 14:33 33.869915 -115.885553 172 7697ft 191kts
24-Dec-20 14:34 33.817065 -115.874986 173 7129ft 192kts
24-Dec-20 14:35 33.766025 -115.865165 173 7100ft 181kts
24-Dec-20 14:36 33.716388 -115.855683 173 7083ft 181kts
24-Dec-20 14:37 33.666757 -115.846198 173 7058ft 180kts
24-Dec-20 14:38 33.619675 -115.837235 173 6887ft 164kts
24-Dec-20 14:38 33.581041 -115.829915 173 6474ft 172kts
24-Dec-20 14:40 33.525086 -115.819245 173 5840ft 177kts
24-Dec-20 14:41 33.475758 -115.811090 188 5234ft 178kts
24-Dec-20 14:42 33.440784 -115.845798 231 4627ft 152kts
24-Dec-20 14:42 33.419028 -115.876067 231 4311ft 133kts
24-Dec-20 14:43 33.398798 -115.904157 232 4278ft 98kts
24-Dec-20 14:45 33.379567 -115.931105 232 4310ft 90kts
24-Dec-20 14:45 33.365917 -115.950182 232 4311ft 90kts
24-Dec-20 14:46 33.372287 -115.973489 316 4168ft 89kts
24-Dec-20 14:47 33.390901 -115.992633 316 3668ft 88kts
24-Dec-20 14:48 33.409786 -116.011892 316 3167ft 89kts
24-Dec-20 14:49 33.429224 -116.031717 316 2728ft 96kts
24-Dec-20 14:50 33.448708 -116.051608 316 2718ft 90kts
24-Dec-20 14:51 33.467963 -116.071301 316 2721ft 91kts
24-Dec-20 14:52 33.487002 -116.090305 316 2346ft 91kts
24-Dec-20 14:53 33.506577 -116.110231 316 2045ft 92kts
24-Dec-20 14:54 33.526123 -116.130090 316 1676ft 90kts
24-Dec-20 14:55 33.548640 -116.141535 345 1248ft 91kts
24-Dec-20 14:56 33.572477 -116.151382 354 746ft 92kts
24-Dec-20 14:57 33.597788 -116.155934 353 245ft 92kts
24-Dec-20 14:58 33.620854 -116.156438 359 -130ft 51kts
24-Dec-20 14:59 33.629909 -116.157623 335 -121ft 18kts
24-Dec-20 15:00 33.634378 -116.159041 260 -117ft 5kts
24-Dec-20 15:01 33.634373 -116.159079 258 -117ft 0kts
24-Dec-20 15:02 33.634373 -116.159079 258 -117ft 0kts

Navigation Log

Ident Type
Flight plan parsing failed, navigation log unavailable